• Join FlightAware (Why Join?)
  • Login
  • US Flag GB Flag 
21:51 EDT


 

Airport Tracker/Info


-or-


 

Live Flight TrackerFlight Track Log ✈ AAY855 ✈ 27-Jan-2014 ✈ KSBN - KPIE

Flight Track Log - Related Links

Times and Time Zones

All times are in EST time to prevent confusion due to time zone crossing. See the AAY855 flight status page for this flight to view local times or setup timezone preferences in your user account.

Time Position Orientation Groundspeed Altitude Reporting Facility
EST Latitude Longitude Course Direction KTS MPH feet Rate Location/Type
13:20 41.6878 -86.3742 195° South 169 194 3,000  Level Chicago Center
13:21 41.6281 -86.3953 195° South 244 281 6,000 3,180 Climbing Chicago Center
13:22 41.5572 -86.3525 156° South 275 316 9,600 3,000 Climbing Chicago Center
13:23 41.4694 -86.3267 168° South 325 374 12,200 2,820 Climbing Chicago Center
13:24 41.3469 -86.2853 166° South 384 442 15,400 2,700 Climbing Chicago Center
13:25 41.2381 -86.2578 169° South 400 460 17,800 3,000 Climbing Chicago Center
13:26 41.1275 -86.2303 169° South 404 465 21,600 2,520 Climbing Chicago Center
13:27 41.0197 -86.1994 168° South 399 459 23,000 1,020 Climbing Chicago Center
13:28 40.9031 -86.1714 170° South 433 498 23,800 1,320 Climbing Chicago Center
13:29 40.7817 -86.1422 170° South 443 510 25,800 1,920 Climbing Chicago Center
13:30 40.6425 -86.1019 168° South 442 509 27,800 1,740 Climbing Chicago Center
13:31 40.5231 -86.0656 167° South 441 507 29,400 1,440 Climbing Chicago Center
13:32 40.4028 -86.0344 169° South 441 507 30,800 1,260 Climbing Chicago Center
13:33 40.2825 -86.0086 171° South 439 505 32,000 720 Climbing Chicago Center
13:34 40.1617 -85.9803 170° South 439 505 32,300 480 Climbing Chicago Center
13:35 40.0392 -85.9475 168° South 446 513 33,000 300 Climbing Indianapolis Center
13:36 39.9142 -85.9139 168° South 451 519 33,000  Level Indianapolis Center
13:37 39.7894 -85.8825 169° South 453 521 33,000  Level Indianapolis Center
13:38 39.6661 -85.8511 169° South 450 518 33,000  Level Indianapolis Center
13:39 39.5414 -85.8214 170° South 451 519 33,000  Level Indianapolis Center
13:40 39.3917 -85.7828 169° South 454 522 33,000  Level Indianapolis Center
13:41 39.2664 -85.7503 169° South 458 527 33,000  Level Indianapolis Center
13:42 39.1419 -85.7197 169° South 456 525 33,000  Level Indianapolis Center
13:43 39.0181 -85.6875 169° South 455 524 33,000  Level Indianapolis Center
13:44 38.8919 -85.6567 169° South 461 531 33,000  Level Indianapolis Center
13:45 38.7669 -85.6256 169° South 459 528 33,000  Level Indianapolis Center
13:46 38.6419 -85.5947 169° South 458 527 33,000  Level Indianapolis Center
13:48 38.5097 -85.5619 169° South 452 520 33,000  Level Indianapolis Center
13:49 38.3864 -85.5322 169° South 449 517 33,000  Level Indianapolis Center
13:50 38.2619 -85.5011 169° South 452 520 33,000  Level Indianapolis Center
13:51 38.1139 -85.4650 169° South 448 516 33,000  Level Indianapolis Center
13:52 37.9914 -85.4367 170° South 444 511 33,000  Level Indianapolis Center
13:53 37.8689 -85.4064 169° South 445 512 33,000  Level Indianapolis Center
13:54 37.7239 -85.3708 169° South 442 509 33,000  Level Indianapolis Center
13:55 37.6008 -85.3408 169° South 447 514 33,000  Level Indianapolis Center
13:56 37.4756 -85.3125 170° South 452 520 33,000  Level Indianapolis Center
13:57 37.3519 -85.2831 169° South 452 520 33,000  Level Indianapolis Center
13:58 37.2086 -85.2478 169° South 449 517 33,000  Level Indianapolis Center
13:59 37.0872 -85.2189 169° South 444 511 33,000  Level Indianapolis Center
14:00 36.9589 -85.1897 170° South 447 514 33,000  Level Indianapolis Center
14:01 36.8367 -85.1600 169° South 449 517 33,000  Level Indianapolis Center
14:02 36.7153 -85.1319 170° South 444 511 33,000  Level Indianapolis Center
14:03 36.5944 -85.1036 169° South 440 506 33,000  Level Indianapolis Center
14:04 36.4725 -85.0756 170° South 445 512 33,000  Level Indianapolis Center
14:05 36.3506 -85.0469 169° South 444 511 33,000  Level Indianapolis Center
14:06 36.2283 -85.0181 169° South 447 514 33,000  Level Indianapolis Center
14:07 36.0806 -84.9828 169° South 451 519 33,000  Level Indianapolis Center
14:08 35.9675 -84.9561 169° South 453 521 33,000  Level Indianapolis Center
14:09 35.8428 -84.9267 169° South 452 520 33,000  Level Indianapolis Center
14:10 35.7153 -84.9083 173° South 458 527 33,000  Level Atlanta Center
14:11 35.5964 -84.8969 176° South 453 521 33,000  Level Atlanta Center
14:12 35.4714 -84.8853 176° South 448 516 33,000  Level Atlanta Center
14:13 35.3483 -84.8739 176° South 443 510 33,000  Level Atlanta Center
14:14 35.2231 -84.8575 174° South 443 510 33,000  Level Atlanta Center
14:15 35.1022 -84.8411 174° South 443 510 33,000  Level Atlanta Center
14:16 34.9772 -84.8297 176° South 443 510 33,000  Level Atlanta Center
14:17 34.8542 -84.8183 176° South 443 510 33,000  Level Atlanta Center
14:18 34.7289 -84.8044 175° South 448 516 33,000  Level Atlanta Center
14:19 34.6183 -84.7883 173° South 448 516 33,000  Level Atlanta Center
14:20 34.4911 -84.7747 175° South 455 524 33,000  Level Atlanta Center
14:21 34.3661 -84.7611 175° South 455 524 33,000  Level Atlanta Center
14:22 34.2408 -84.7500 176° South 455 524 33,000  Level Atlanta Center
14:23 34.0992 -84.7386 176° South 460 529 33,000  Level Atlanta Center
14:24 33.9761 -84.7278 176° South 465 535 33,000  Level Atlanta Center
14:25 33.8531 -84.7117 174° South 455 524 33,000  Level Atlanta Center
14:26 33.7278 -84.6983 175° South 455 524 33,000  Level Atlanta Center
14:27 33.6025 -84.6847 175° South 455 524 33,000  Level Atlanta Center
14:28 33.4878 -84.6739 175° South 461 531 33,000  Level Atlanta Center
14:29 33.3647 -84.6606 175° South 455 524 33,000  Level Atlanta Center
14:30 33.2397 -84.6472 175° South 455 524 33,000  Level Atlanta Center
14:31 33.1144 -84.6367 176° South 460 529 33,000  Level Atlanta Center
14:32 32.9747 -84.6208 175° South 460 529 33,000  Level Atlanta Center
14:33 32.8517 -84.6100 176° South 460 529 33,000  Level Atlanta Center
14:34 32.7264 -84.5944 174° South 455 524 33,000  Level Atlanta Center
14:35 32.5992 -84.5839 176° South 460 529 33,000  Level Atlanta Center
14:36 32.4739 -84.5633 172° South 466 536 33,000  Level Atlanta Center
14:37 32.3614 -84.5528 175° South 461 531 33,000  Level Atlanta Center
14:38 32.2361 -84.5397 175° South 461 531 33,000  Level Atlanta Center
14:39 32.1108 -84.5292 176° South 461 531 33,000  Level Atlanta Center
14:43 31.6783 -84.4819 175° South 476 548 33,000  Level Jacksonville Center
14:44 31.5450 -84.4697 176° South 470 541 33,000  Level Jacksonville Center
14:45 31.4225 -84.4239 162° South 470 541 33,000  Level Jacksonville Center
14:46 31.2831 -84.3756 163° South 470 541 33,000  Level Jacksonville Center
14:47 31.1542 -84.3297 163° South 475 547 33,000 -60 Level Jacksonville Center
14:48 31.0272 -84.2914 165° South 475 547 32,900 -60 Descending Jacksonville Center
14:49 30.8942 -84.2458 164° South 475 547 32,900  Level Jacksonville Center
14:50 30.7672 -84.2053 165° South 475 547 32,900  Level Jacksonville Center
14:51 30.6422 -84.1625 164° South 475 547 32,900  Level Jacksonville Center
14:52 30.5133 -84.1200 164° South 475 547 32,900  Level Jacksonville Center
14:53 30.3842 -84.0772 164° South 475 547 32,900  Level Jacksonville Center
14:54 30.2531 -84.0372 165° South 480 552 32,900  Level Jacksonville Center
14:55 30.1239 -83.9950 164° South 480 552 32,900  Level Jacksonville Center
14:56 29.9969 -83.9550 165° South 480 552 32,900  Level Jacksonville Center
14:57 29.8658 -83.9128 164° South 480 552 32,900  Level Jacksonville Center
14:58 29.7408 -83.8517 157° South 480 552 32,900  Level Jacksonville Center
14:59 29.6206 -83.7717 150° Southeast 485 558 32,900  Level Jacksonville Center
15:00 29.5042 -83.6919 149° Southeast 491 565 32,900 -1,140 Level Jacksonville Center
15:01 29.3814 -83.6122 150° Southeast 498 573 30,700 -2,520 Descending Jacksonville Center
15:02 29.2608 -83.5378 152° Southeast 498 573 27,900 -2,280 Descending Jacksonville Center
15:03 29.1442 -83.4631 151° Southeast 492 566 26,200 -1,140 Descending Jacksonville Center
15:04 29.0381 -83.3983 152° Southeast 487 560 25,700 -1,440 Descending Jacksonville Center
15:05 28.9275 -83.3267 150° Southeast 471 542 23,400 -2,340 Descending Jacksonville Center
15:06 28.8214 -83.2553 149° Southeast 461 531 21,100 -2,160 Descending Jacksonville Center
15:08 28.5667 -83.1000 152° Southeast 410 472 16,000 -2,040 Descending Tampa TRACON
15:09 28.4833 -83.0500 152° Southeast 369 425 14,200 -1,800 Descending Tampa TRACON
15:10 28.4000 -83.0000 152° Southeast 307 353 12,500 -2,040 Descending Tampa TRACON
15:11 28.3167 -82.9333 145° Southeast 293 337 10,000 -1,980 Descending Tampa TRACON
15:12 28.2500 -82.8833 147° Southeast 295 339 8,400 -1,860 Descending Tampa TRACON
15:13 28.2000 -82.8333 139° Southeast 270 311 6,500 -2,400 Descending Tampa TRACON
15:14 28.1333 -82.8000 156° South 278 320 3,700 -1,920 Descending Tampa TRACON
15:15 28.0833 -82.7333 130° Southeast 253 291 2,500 -1,020 Descending Tampa TRACON
15:16 28.0333 -82.6833 139° Southeast 211 243 1,600 -600 Descending Tampa TRACON
15:17 28.0000 -82.6667 156° South 186 214 1,400 -540 Descending Tampa TRACON
15:18 27.9500 -82.7000 210° Southwest 135 155 600 -660 Descending Tampa TRACON